sensor_id;sensor_type;location;lat;lon;timestamp;P1;durP1;ratioP1;P2;durP2;ratioP2
76023;SDS011;64719;52.124;6.226;2023-09-19T00:01:31;11.27;;;1.75;;
76023;SDS011;64719;52.124;6.226;2023-09-19T00:03:59;7.95;;;1.83;;
76023;SDS011;64719;52.124;6.226;2023-09-19T00:06:27;4.97;;;1.73;;
76023;SDS011;64719;52.124;6.226;2023-09-19T00:08:56;8.85;;;1.92;;
76023;SDS011;64719;52.124;6.226;2023-09-19T00:11:24;8.60;;;2.08;;
76023;SDS011;64719;52.124;6.226;2023-09-19T00:13:51;8.38;;;1.92;;
76023;SDS011;64719;52.124;6.226;2023-09-19T00:16:19;3.80;;;1.60;;
76023;SDS011;64719;52.124;6.226;2023-09-19T00:18:46;5.07;;;1.80;;
76023;SDS011;64719;52.124;6.226;2023-09-19T00:21:15;8.07;;;2.17;;
76023;SDS011;64719;52.124;6.226;2023-09-19T00:23:41;7.78;;;2.17;;
76023;SDS011;64719;52.124;6.226;2023-09-19T00:26:08;4.75;;;1.67;;
76023;SDS011;64719;52.124;6.226;2023-09-19T00:28:35;3.97;;;1.52;;
76023;SDS011;64719;52.124;6.226;2023-09-19T00:31:01;7.45;;;1.50;;
76023;SDS011;64719;52.124;6.226;2023-09-19T00:33:28;7.43;;;1.50;;
76023;SDS011;64719;52.124;6.226;2023-09-19T00:35:56;3.75;;;1.58;;
76023;SDS011;64719;52.124;6.226;2023-09-19T00:40:52;5.28;;;1.33;;
76023;SDS011;64719;52.124;6.226;2023-09-19T00:43:21;5.18;;;1.50;;
76023;SDS011;64719;52.124;6.226;2023-09-19T00:45:50;6.20;;;1.60;;
76023;SDS011;64719;52.124;6.226;2023-09-19T00:48:18;5.82;;;1.88;;
76023;SDS011;64719;52.124;6.226;2023-09-19T00:50:46;5.25;;;1.40;;
76023;SDS011;64719;52.124;6.226;2023-09-19T00:53:14;4.97;;;1.40;;
76023;SDS011;64719;52.124;6.226;2023-09-19T00:55:45;3.70;;;1.52;;
76023;SDS011;64719;52.124;6.226;2023-09-19T00:58:13;5.25;;;1.75;;
76023;SDS011;64719;52.124;6.226;2023-09-19T01:00:40;4.32;;;1.50;;
76023;SDS011;64719;52.124;6.226;2023-09-19T01:03:09;5.75;;;1.67;;
76023;SDS011;64719;52.124;6.226;2023-09-19T01:05:38;7.25;;;1.83;;
76023;SDS011;64719;52.124;6.226;2023-09-19T01:08:05;6.35;;;2.33;;
76023;SDS011;64719;52.124;6.226;2023-09-19T01:10:32;4.35;;;1.55;;
76023;SDS011;64719;52.124;6.226;2023-09-19T01:13:02;6.43;;;1.70;;
76023;SDS011;64719;52.124;6.226;2023-09-19T01:15:38;5.95;;;2.00;;
76023;SDS011;64719;52.124;6.226;2023-09-19T01:18:13;13.23;;;2.20;;
76023;SDS011;64719;52.124;6.226;2023-09-19T01:20:51;7.47;;;2.13;;
76023;SDS011;64719;52.124;6.226;2023-09-19T01:23:25;6.82;;;2.38;;
76023;SDS011;64719;52.124;6.226;2023-09-19T01:26:05;7.70;;;2.42;;
76023;SDS011;64719;52.124;6.226;2023-09-19T01:28:39;6.70;;;2.20;;
76023;SDS011;64719;52.124;6.226;2023-09-19T01:31:20;7.97;;;2.05;;
76023;SDS011;64719;52.124;6.226;2023-09-19T01:33:55;6.00;;;2.33;;
76023;SDS011;64719;52.124;6.226;2023-09-19T01:36:24;9.75;;;2.10;;
76023;SDS011;64719;52.124;6.226;2023-09-19T01:38:51;6.60;;;2.00;;
76023;SDS011;64719;52.124;6.226;2023-09-19T01:41:21;8.70;;;2.40;;
76023;SDS011;64719;52.124;6.226;2023-09-19T01:43:59;7.45;;;2.20;;
76023;SDS011;64719;52.124;6.226;2023-09-19T01:46:33;8.15;;;2.53;;
76023;SDS011;64719;52.124;6.226;2023-09-19T01:49:04;9.88;;;2.50;;
76023;SDS011;64719;52.124;6.226;2023-09-19T01:51:43;5.65;;;2.10;;
76023;SDS011;64719;52.124;6.226;2023-09-19T01:54:18;6.93;;;2.60;;
76023;SDS011;64719;52.124;6.226;2023-09-19T01:56:53;9.07;;;2.45;;
76023;SDS011;64719;52.124;6.226;2023-09-19T01:59:28;6.80;;;2.45;;
76023;SDS011;64719;52.124;6.226;2023-09-19T02:02:03;11.00;;;3.15;;
76023;SDS011;64719;52.124;6.226;2023-09-19T02:04:32;8.82;;;2.33;;
76023;SDS011;64719;52.124;6.226;2023-09-19T02:07:00;8.15;;;3.28;;
76023;SDS011;64719;52.124;6.226;2023-09-19T02:09:27;8.43;;;2.65;;
76023;SDS011;64719;52.124;6.226;2023-09-19T02:11:54;8.82;;;2.53;;
76023;SDS011;64719;52.124;6.226;2023-09-19T02:14:20;8.13;;;2.30;;
76023;SDS011;64719;52.124;6.226;2023-09-19T02:16:47;10.32;;;2.63;;
76023;SDS011;64719;52.124;6.226;2023-09-19T02:19:16;9.73;;;2.28;;
76023;SDS011;64719;52.124;6.226;2023-09-19T02:21:42;7.50;;;2.20;;
76023;SDS011;64719;52.124;6.226;2023-09-19T02:24:09;10.35;;;2.30;;
76023;SDS011;64719;52.124;6.226;2023-09-19T02:29:04;6.85;;;1.90;;
76023;SDS011;64719;52.124;6.226;2023-09-19T02:31:30;11.13;;;2.30;;
76023;SDS011;64719;52.124;6.226;2023-09-19T02:33:57;9.10;;;2.10;;
76023;SDS011;64719;52.124;6.226;2023-09-19T02:36:26;7.57;;;1.90;;
76023;SDS011;64719;52.124;6.226;2023-09-19T02:38:52;9.63;;;2.28;;
76023;SDS011;64719;52.124;6.226;2023-09-19T02:41:19;11.63;;;2.00;;
76023;SDS011;64719;52.124;6.226;2023-09-19T02:43:45;10.40;;;2.08;;
76023;SDS011;64719;52.124;6.226;2023-09-19T02:46:12;6.25;;;2.58;;
76023;SDS011;64719;52.124;6.226;2023-09-19T02:48:39;10.23;;;2.03;;
76023;SDS011;64719;52.124;6.226;2023-09-19T02:51:06;12.45;;;2.20;;
76023;SDS011;64719;52.124;6.226;2023-09-19T02:53:34;11.15;;;3.00;;
76023;SDS011;64719;52.124;6.226;2023-09-19T02:56:01;7.55;;;2.13;;
76023;SDS011;64719;52.124;6.226;2023-09-19T02:58:29;5.78;;;1.77;;
76023;SDS011;64719;52.124;6.226;2023-09-19T03:01:07;9.10;;;1.92;;
76023;SDS011;64719;52.124;6.226;2023-09-19T03:03:34;8.23;;;1.90;;
76023;SDS011;64719;52.124;6.226;2023-09-19T03:10:57;10.70;;;2.10;;
76023;SDS011;64719;52.124;6.226;2023-09-19T03:13:25;9.35;;;1.88;;
76023;SDS011;64719;52.124;6.226;2023-09-19T03:15:54;9.23;;;2.15;;
76023;SDS011;64719;52.124;6.226;2023-09-19T03:18:21;7.03;;;1.95;;
76023;SDS011;64719;52.124;6.226;2023-09-19T03:20:52;9.38;;;1.90;;
76023;SDS011;64719;52.124;6.226;2023-09-19T03:23:20;7.65;;;1.77;;
76023;SDS011;64719;52.124;6.226;2023-09-19T03:25:46;5.75;;;1.60;;
76023;SDS011;64719;52.124;6.226;2023-09-19T03:28:15;11.23;;;2.15;;
76023;SDS011;64719;52.124;6.226;2023-09-19T03:30:41;9.82;;;1.90;;
76023;SDS011;64719;52.124;6.226;2023-09-19T03:33:08;6.30;;;1.92;;
76023;SDS011;64719;52.124;6.226;2023-09-19T03:35:37;5.65;;;1.45;;
76023;SDS011;64719;52.124;6.226;2023-09-19T03:38:03;6.88;;;2.35;;
76023;SDS011;64719;52.124;6.226;2023-09-19T03:40:30;5.10;;;1.50;;
76023;SDS011;64719;52.124;6.226;2023-09-19T03:42:58;5.95;;;1.60;;
76023;SDS011;64719;52.124;6.226;2023-09-19T03:45:28;9.35;;;1.77;;
76023;SDS011;64719;52.124;6.226;2023-09-19T03:47:54;8.43;;;1.50;;
76023;SDS011;64719;52.124;6.226;2023-09-19T03:50:21;7.95;;;1.92;;
76023;SDS011;64719;52.124;6.226;2023-09-19T03:52:47;7.03;;;1.70;;
76023;SDS011;64719;52.124;6.226;2023-09-19T03:55:14;8.70;;;1.70;;
76023;SDS011;64719;52.124;6.226;2023-09-19T03:57:41;12.57;;;2.15;;
76023;SDS011;64719;52.124;6.226;2023-09-19T04:00:07;6.95;;;2.10;;
76023;SDS011;64719;52.124;6.226;2023-09-19T04:02:37;6.75;;;1.70;;
76023;SDS011;64719;52.124;6.226;2023-09-19T04:09:59;11.13;;;2.15;;
76023;SDS011;64719;52.124;6.226;2023-09-19T04:12:26;8.05;;;1.98;;
76023;SDS011;64719;52.124;6.226;2023-09-19T04:14:52;8.65;;;1.67;;
76023;SDS011;64719;52.124;6.226;2023-09-19T04:17:19;7.75;;;1.85;;
76023;SDS011;64719;52.124;6.226;2023-09-19T04:19:47;6.68;;;1.85;;
76023;SDS011;64719;52.124;6.226;2023-09-19T04:22:13;5.47;;;1.92;;
76023;SDS011;64719;52.124;6.226;2023-09-19T04:24:40;8.45;;;1.88;;
76023;SDS011;64719;52.124;6.226;2023-09-19T04:27:06;8.68;;;1.90;;
76023;SDS011;64719;52.124;6.226;2023-09-19T04:29:33;8.80;;;1.88;;
76023;SDS011;64719;52.124;6.226;2023-09-19T04:32:00;10.45;;;2.08;;
76023;SDS011;64719;52.124;6.226;2023-09-19T04:34:29;7.47;;;1.80;;
76023;SDS011;64719;52.124;6.226;2023-09-19T04:36:57;5.50;;;1.70;;
76023;SDS011;64719;52.124;6.226;2023-09-19T04:39:25;5.45;;;1.70;;
76023;SDS011;64719;52.124;6.226;2023-09-19T04:41:52;9.70;;;2.47;;
76023;SDS011;64719;52.124;6.226;2023-09-19T04:44:19;7.40;;;1.70;;
76023;SDS011;64719;52.124;6.226;2023-09-19T04:46:45;6.63;;;1.60;;
76023;SDS011;64719;52.124;6.226;2023-09-19T04:49:12;8.18;;;1.70;;
76023;SDS011;64719;52.124;6.226;2023-09-19T04:51:38;7.60;;;1.55;;
76023;SDS011;64719;52.124;6.226;2023-09-19T04:54:07;8.52;;;1.80;;
76023;SDS011;64719;52.124;6.226;2023-09-19T04:56:34;7.93;;;1.67;;
76023;SDS011;64719;52.124;6.226;2023-09-19T04:59:00;6.53;;;2.22;;
76023;SDS011;64719;52.124;6.226;2023-09-19T05:01:27;4.90;;;1.50;;
76023;SDS011;64719;52.124;6.226;2023-09-19T05:03:54;9.60;;;1.33;;
76023;SDS011;64719;52.124;6.226;2023-09-19T05:06:20;3.40;;;1.33;;
76023;SDS011;64719;52.124;6.226;2023-09-19T05:08:47;8.23;;;2.00;;
76023;SDS011;64719;52.124;6.226;2023-09-19T05:11:17;8.20;;;2.00;;
76023;SDS011;64719;52.124;6.226;2023-09-19T05:13:44;8.13;;;1.60;;
76023;SDS011;64719;52.124;6.226;2023-09-19T05:16:10;6.10;;;1.40;;
76023;SDS011;64719;52.124;6.226;2023-09-19T05:18:37;9.82;;;1.67;;
76023;SDS011;64719;52.124;6.226;2023-09-19T05:21:03;8.63;;;2.03;;
76023;SDS011;64719;52.124;6.226;2023-09-19T05:23:30;16.83;;;1.98;;
76023;SDS011;64719;52.124;6.226;2023-09-19T05:25:57;6.72;;;2.03;;
76023;SDS011;64719;52.124;6.226;2023-09-19T05:28:26;7.38;;;1.40;;
76023;SDS011;64719;52.124;6.226;2023-09-19T05:30:52;8.65;;;2.30;;
76023;SDS011;64719;52.124;6.226;2023-09-19T05:33:19;8.25;;;1.83;;
76023;SDS011;64719;52.124;6.226;2023-09-19T05:35:47;7.93;;;1.45;;
76023;SDS011;64719;52.124;6.226;2023-09-19T05:40:44;8.10;;;2.03;;
76023;SDS011;64719;52.124;6.226;2023-09-19T05:43:11;8.27;;;2.08;;
76023;SDS011;64719;52.124;6.226;2023-09-19T05:45:40;6.95;;;1.73;;
76023;SDS011;64719;52.124;6.226;2023-09-19T05:48:07;6.40;;;1.73;;
76023;SDS011;64719;52.124;6.226;2023-09-19T05:50:35;10.15;;;1.88;;
76023;SDS011;64719;52.124;6.226;2023-09-19T05:53:01;11.27;;;1.70;;
76023;SDS011;64719;52.124;6.226;2023-09-19T05:55:29;7.57;;;1.70;;
76023;SDS011;64719;52.124;6.226;2023-09-19T05:57:55;5.50;;;1.20;;
76023;SDS011;64719;52.124;6.226;2023-09-19T06:00:23;9.18;;;1.92;;
76023;SDS011;64719;52.124;6.226;2023-09-19T06:02:53;5.97;;;1.50;;
76023;SDS011;64719;52.124;6.226;2023-09-19T06:05:22;7.65;;;1.65;;
76023;SDS011;64719;52.124;6.226;2023-09-19T06:07:49;10.43;;;2.30;;
76023;SDS011;64719;52.124;6.226;2023-09-19T06:10:17;8.13;;;2.05;;
76023;SDS011;64719;52.124;6.226;2023-09-19T06:12:46;5.80;;;1.70;;
76023;SDS011;64719;52.124;6.226;2023-09-19T06:15:13;6.70;;;2.15;;
76023;SDS011;64719;52.124;6.226;2023-09-19T06:17:45;9.90;;;1.77;;
76023;SDS011;64719;52.124;6.226;2023-09-19T06:20:14;7.15;;;1.73;;
76023;SDS011;64719;52.124;6.226;2023-09-19T06:22:42;7.13;;;1.52;;
76023;SDS011;64719;52.124;6.226;2023-09-19T06:25:09;6.97;;;1.55;;
76023;SDS011;64719;52.124;6.226;2023-09-19T06:27:37;6.00;;;1.90;;
76023;SDS011;64719;52.124;6.226;2023-09-19T06:30:04;10.00;;;1.70;;
76023;SDS011;64719;52.124;6.226;2023-09-19T06:32:33;7.75;;;1.92;;
76023;SDS011;64719;52.124;6.226;2023-09-19T06:34:59;7.45;;;1.73;;
76023;SDS011;64719;52.124;6.226;2023-09-19T06:37:28;6.93;;;1.60;;
76023;SDS011;64719;52.124;6.226;2023-09-19T06:39:54;8.32;;;1.60;;
76023;SDS011;64719;52.124;6.226;2023-09-19T06:42:22;9.35;;;2.33;;
76023;SDS011;64719;52.124;6.226;2023-09-19T06:44:48;6.13;;;1.55;;
76023;SDS011;64719;52.124;6.226;2023-09-19T06:47:15;8.98;;;1.52;;
76023;SDS011;64719;52.124;6.226;2023-09-19T06:49:42;6.68;;;1.55;;
76023;SDS011;64719;52.124;6.226;2023-09-19T06:52:09;8.00;;;1.75;;
76023;SDS011;64719;52.124;6.226;2023-09-19T06:54:36;9.77;;;1.90;;
76023;SDS011;64719;52.124;6.226;2023-09-19T06:57:05;5.85;;;1.60;;
76023;SDS011;64719;52.124;6.226;2023-09-19T06:59:34;14.32;;;2.53;;
76023;SDS011;64719;52.124;6.226;2023-09-19T07:02:02;8.98;;;1.75;;
76023;SDS011;64719;52.124;6.226;2023-09-19T07:04:31;7.55;;;1.45;;
76023;SDS011;64719;52.124;6.226;2023-09-19T07:06:57;7.60;;;1.58;;
76023;SDS011;64719;52.124;6.226;2023-09-19T07:09:24;7.30;;;2.05;;
76023;SDS011;64719;52.124;6.226;2023-09-19T07:11:53;4.78;;;1.50;;
76023;SDS011;64719;52.124;6.226;2023-09-19T07:16:46;9.38;;;2.03;;
76023;SDS011;64719;52.124;6.226;2023-09-19T07:19:14;8.30;;;1.88;;
76023;SDS011;64719;52.124;6.226;2023-09-19T07:21:41;9.35;;;1.80;;
76023;SDS011;64719;52.124;6.226;2023-09-19T07:24:07;8.73;;;1.73;;
76023;SDS011;64719;52.124;6.226;2023-09-19T07:26:34;5.72;;;1.35;;
76023;SDS011;64719;52.124;6.226;2023-09-19T07:29:02;7.97;;;1.70;;
76023;SDS011;64719;52.124;6.226;2023-09-19T07:31:29;7.25;;;1.52;;
76023;SDS011;64719;52.124;6.226;2023-09-19T07:33:56;11.23;;;2.00;;
76023;SDS011;64719;52.124;6.226;2023-09-19T07:36:23;6.53;;;1.67;;
76023;SDS011;64719;52.124;6.226;2023-09-19T07:38:50;8.52;;;1.88;;
76023;SDS011;64719;52.124;6.226;2023-09-19T07:41:16;7.57;;;1.40;;
76023;SDS011;64719;52.124;6.226;2023-09-19T07:43:43;11.70;;;2.33;;
76023;SDS011;64719;52.124;6.226;2023-09-19T07:46:11;11.05;;;2.10;;
76023;SDS011;64719;52.124;6.226;2023-09-19T07:48:38;10.45;;;2.17;;
76023;SDS011;64719;52.124;6.226;2023-09-19T07:51:07;7.35;;;1.63;;
76023;SDS011;64719;52.124;6.226;2023-09-19T07:53:35;7.93;;;1.77;;
76023;SDS011;64719;52.124;6.226;2023-09-19T07:56:03;10.45;;;2.20;;
76023;SDS011;64719;52.124;6.226;2023-09-19T07:58:30;8.13;;;1.60;;
76023;SDS011;64719;52.124;6.226;2023-09-19T08:03:29;6.10;;;1.60;;
76023;SDS011;64719;52.124;6.226;2023-09-19T08:05:56;7.70;;;1.98;;
76023;SDS011;64719;52.124;6.226;2023-09-19T08:08:24;7.18;;;2.10;;
76023;SDS011;64719;52.124;6.226;2023-09-19T08:10:52;8.27;;;2.00;;
76023;SDS011;64719;52.124;6.226;2023-09-19T08:13:20;9.68;;;2.00;;
76023;SDS011;64719;52.124;6.226;2023-09-19T08:15:47;6.50;;;1.92;;
76023;SDS011;64719;52.124;6.226;2023-09-19T08:18:14;7.68;;;2.13;;
76023;SDS011;64719;52.124;6.226;2023-09-19T08:20:42;11.65;;;2.72;;
76023;SDS011;64719;52.124;6.226;2023-09-19T08:23:11;8.20;;;2.20;;
76023;SDS011;64719;52.124;6.226;2023-09-19T08:25:38;8.40;;;2.25;;
76023;SDS011;64719;52.124;6.226;2023-09-19T08:28:05;7.95;;;1.80;;
76023;SDS011;64719;52.124;6.226;2023-09-19T08:30:34;10.70;;;2.35;;
76023;SDS011;64719;52.124;6.226;2023-09-19T08:33:00;8.65;;;2.00;;
76023;SDS011;64719;52.124;6.226;2023-09-19T08:35:29;8.60;;;2.13;;
76023;SDS011;64719;52.124;6.226;2023-09-19T08:37:57;8.02;;;1.80;;
76023;SDS011;64719;52.124;6.226;2023-09-19T08:40:25;7.82;;;2.10;;
76023;SDS011;64719;52.124;6.226;2023-09-19T08:42:55;10.40;;;2.60;;
76023;SDS011;64719;52.124;6.226;2023-09-19T08:45:22;7.63;;;2.03;;
76023;SDS011;64719;52.124;6.226;2023-09-19T08:47:53;8.18;;;2.30;;
76023;SDS011;64719;52.124;6.226;2023-09-19T08:50:27;10.00;;;2.50;;
76023;SDS011;64719;52.124;6.226;2023-09-19T08:52:56;7.10;;;2.40;;
76023;SDS011;64719;52.124;6.226;2023-09-19T08:55:28;8.60;;;2.17;;
76023;SDS011;64719;52.124;6.226;2023-09-19T08:57:58;8.70;;;2.30;;
76023;SDS011;64719;52.124;6.226;2023-09-19T09:00:27;10.35;;;2.53;;
76023;SDS011;64719;52.124;6.226;2023-09-19T09:02:55;8.05;;;2.20;;
76023;SDS011;64719;52.124;6.226;2023-09-19T09:07:49;11.27;;;2.00;;
76023;SDS011;64719;52.124;6.226;2023-09-19T09:10:18;8.50;;;1.88;;
76023;SDS011;64719;52.124;6.226;2023-09-19T09:12:47;8.60;;;2.05;;
76023;SDS011;64719;52.124;6.226;2023-09-19T09:17:46;8.73;;;2.33;;
76023;SDS011;64719;52.124;6.226;2023-09-19T09:20:13;7.07;;;2.00;;
76023;SDS011;64719;52.124;6.226;2023-09-19T09:22:43;8.52;;;2.40;;
76023;SDS011;64719;52.124;6.226;2023-09-19T09:25:18;9.88;;;2.50;;
76023;SDS011;64719;52.124;6.226;2023-09-19T09:27:55;9.23;;;2.45;;
76023;SDS011;64719;52.124;6.226;2023-09-19T09:30:35;8.05;;;2.10;;
76023;SDS011;64719;52.124;6.226;2023-09-19T09:33:09;7.20;;;2.25;;
76023;SDS011;64719;52.124;6.226;2023-09-19T09:35:37;12.32;;;2.58;;
76023;SDS011;64719;52.124;6.226;2023-09-19T09:38:06;8.00;;;2.28;;
76023;SDS011;64719;52.124;6.226;2023-09-19T09:40:46;6.60;;;2.08;;
76023;SDS011;64719;52.124;6.226;2023-09-19T09:43:29;7.80;;;2.33;;
76023;SDS011;64719;52.124;6.226;2023-09-19T09:46:07;7.75;;;2.20;;
76023;SDS011;64719;52.124;6.226;2023-09-19T09:48:56;7.90;;;2.10;;
76023;SDS011;64719;52.124;6.226;2023-09-19T09:51:50;8.07;;;2.63;;
76023;SDS011;64719;52.124;6.226;2023-09-19T09:54:26;5.85;;;1.70;;
76023;SDS011;64719;52.124;6.226;2023-09-19T09:59:48;8.85;;;2.08;;
76023;SDS011;64719;52.124;6.226;2023-09-19T10:02:16;9.65;;;2.65;;
76023;SDS011;64719;52.124;6.226;2023-09-19T10:04:53;5.88;;;1.98;;
76023;SDS011;64719;52.124;6.226;2023-09-19T10:07:35;7.57;;;2.03;;
76023;SDS011;64719;52.124;6.226;2023-09-19T10:10:06;6.82;;;1.90;;
76023;SDS011;64719;52.124;6.226;2023-09-19T10:12:42;7.82;;;2.25;;
76023;SDS011;64719;52.124;6.226;2023-09-19T10:15:13;10.15;;;2.00;;
76023;SDS011;64719;52.124;6.226;2023-09-19T10:17:42;8.15;;;1.83;;
76023;SDS011;64719;52.124;6.226;2023-09-19T10:20:14;6.90;;;1.80;;
76023;SDS011;64719;52.124;6.226;2023-09-19T10:23:00;7.07;;;2.10;;
76023;SDS011;64719;52.124;6.226;2023-09-19T10:25:34;11.15;;;2.33;;
76023;SDS011;64719;52.124;6.226;2023-09-19T10:28:03;7.93;;;2.25;;
76023;SDS011;64719;52.124;6.226;2023-09-19T10:30:36;8.15;;;1.83;;
76023;SDS011;64719;52.124;6.226;2023-09-19T10:33:07;8.70;;;2.20;;
76023;SDS011;64719;52.124;6.226;2023-09-19T10:35:35;8.38;;;2.08;;
76023;SDS011;64719;52.124;6.226;2023-09-19T10:38:07;7.70;;;2.00;;
76023;SDS011;64719;52.124;6.226;2023-09-19T10:40:36;10.32;;;2.35;;
76023;SDS011;64719;52.124;6.226;2023-09-19T10:43:08;5.90;;;1.77;;
76023;SDS011;64719;52.124;6.226;2023-09-19T10:45:38;9.05;;;2.17;;
76023;SDS011;64719;52.124;6.226;2023-09-19T10:48:06;9.35;;;1.80;;
76023;SDS011;64719;52.124;6.226;2023-09-19T10:50:35;8.13;;;2.00;;
76023;SDS011;64719;52.124;6.226;2023-09-19T10:53:11;8.63;;;1.75;;
76023;SDS011;64719;52.124;6.226;2023-09-19T10:55:40;10.45;;;2.60;;
76023;SDS011;64719;52.124;6.226;2023-09-19T11:00:52;6.55;;;1.65;;
76023;SDS011;64719;52.124;6.226;2023-09-19T11:03:20;8.18;;;1.90;;
76023;SDS011;64719;52.124;6.226;2023-09-19T11:06:02;9.05;;;1.85;;
76023;SDS011;64719;52.124;6.226;2023-09-19T11:11:45;10.32;;;1.90;;
76023;SDS011;64719;52.124;6.226;2023-09-19T11:14:16;9.20;;;1.70;;
76023;SDS011;64719;52.124;6.226;2023-09-19T11:20:19;7.15;;;1.70;;
76023;SDS011;64719;52.124;6.226;2023-09-19T11:25:57;6.45;;;1.60;;
76023;SDS011;64719;52.124;6.226;2023-09-19T11:28:33;5.80;;;1.60;;
76023;SDS011;64719;52.124;6.226;2023-09-19T11:40:27;8.85;;;1.95;;
76023;SDS011;64719;52.124;6.226;2023-09-19T11:42:57;6.97;;;1.75;;
76023;SDS011;64719;52.124;6.226;2023-09-19T11:48:27;7.45;;;1.48;;
76023;SDS011;64719;52.124;6.226;2023-09-19T11:50:55;6.22;;;1.60;;
76023;SDS011;64719;52.124;6.226;2023-09-19T11:53:24;7.55;;;1.85;;
76023;SDS011;64719;52.124;6.226;2023-09-19T11:58:27;5.93;;;1.50;;
76023;SDS011;64719;52.124;6.226;2023-09-19T12:00:55;8.05;;;1.73;;
76023;SDS011;64719;52.124;6.226;2023-09-19T12:03:24;5.30;;;1.75;;
76023;SDS011;64719;52.124;6.226;2023-09-19T12:05:56;4.47;;;1.30;;
76023;SDS011;64719;52.124;6.226;2023-09-19T12:08:23;6.68;;;1.77;;
76023;SDS011;64719;52.124;6.226;2023-09-19T12:10:51;8.02;;;1.50;;
76023;SDS011;64719;52.124;6.226;2023-09-19T12:13:20;8.27;;;1.67;;
76023;SDS011;64719;52.124;6.226;2023-09-19T12:15:48;5.10;;;1.33;;
76023;SDS011;64719;52.124;6.226;2023-09-19T12:18:27;5.97;;;1.33;;
76023;SDS011;64719;52.124;6.226;2023-09-19T12:20:54;4.72;;;1.40;;
76023;SDS011;64719;52.124;6.226;2023-09-19T12:23:22;5.75;;;1.42;;
76023;SDS011;64719;52.124;6.226;2023-09-19T12:25:50;6.85;;;1.38;;
76023;SDS011;64719;52.124;6.226;2023-09-19T12:28:21;5.35;;;1.52;;
76023;SDS011;64719;52.124;6.226;2023-09-19T12:30:50;9.30;;;1.77;;
76023;SDS011;64719;52.124;6.226;2023-09-19T12:33:20;7.05;;;1.55;;
76023;SDS011;64719;52.124;6.226;2023-09-19T12:35:50;4.78;;;1.48;;
76023;SDS011;64719;52.124;6.226;2023-09-19T12:38:24;6.13;;;1.30;;
76023;SDS011;64719;52.124;6.226;2023-09-19T12:40:53;4.82;;;1.50;;
76023;SDS011;64719;52.124;6.226;2023-09-19T12:43:21;6.85;;;1.58;;
76023;SDS011;64719;52.124;6.226;2023-09-19T12:45:48;5.20;;;1.45;;
76023;SDS011;64719;52.124;6.226;2023-09-19T12:48:18;5.85;;;1.40;;
76023;SDS011;64719;52.124;6.226;2023-09-19T12:50:59;5.18;;;1.23;;
76023;SDS011;64719;52.124;6.226;2023-09-19T12:53:30;5.72;;;1.65;;
76023;SDS011;64719;52.124;6.226;2023-09-19T12:55:59;3.78;;;1.50;;
76023;SDS011;64719;52.124;6.226;2023-09-19T12:58:26;4.43;;;1.33;;
76023;SDS011;64719;52.124;6.226;2023-09-19T13:00:54;5.47;;;1.45;;
76023;SDS011;64719;52.124;6.226;2023-09-19T13:03:25;3.97;;;1.00;;
76023;SDS011;64719;52.124;6.226;2023-09-19T13:05:53;3.78;;;1.30;;
76023;SDS011;64719;52.124;6.226;2023-09-19T13:11:04;4.47;;;1.30;;
76023;SDS011;64719;52.124;6.226;2023-09-19T13:13:34;4.00;;;1.23;;
76023;SDS011;64719;52.124;6.226;2023-09-19T13:16:03;3.75;;;1.30;;
76023;SDS011;64719;52.124;6.226;2023-09-19T13:18:41;4.32;;;1.10;;
76023;SDS011;64719;52.124;6.226;2023-09-19T13:21:10;5.00;;;1.02;;
76023;SDS011;64719;52.124;6.226;2023-09-19T13:23:40;7.60;;;1.10;;
76023;SDS011;64719;52.124;6.226;2023-09-19T13:26:07;3.92;;;1.17;;
76023;SDS011;64719;52.124;6.226;2023-09-19T13:28:33;4.90;;;1.10;;
76023;SDS011;64719;52.124;6.226;2023-09-19T13:31:01;4.10;;;1.20;;
76023;SDS011;64719;52.124;6.226;2023-09-19T13:33:29;7.05;;;1.48;;
76023;SDS011;64719;52.124;6.226;2023-09-19T13:40:48;3.17;;;0.85;;
76023;SDS011;64719;52.124;6.226;2023-09-19T13:43:17;6.03;;;1.40;;
76023;SDS011;64719;52.124;6.226;2023-09-19T13:45:44;2.13;;;0.73;;
76023;SDS011;64719;52.124;6.226;2023-09-19T13:48:10;3.13;;;0.98;;
76023;SDS011;64719;52.124;6.226;2023-09-19T13:50:38;3.92;;;1.00;;
76023;SDS011;64719;52.124;6.226;2023-09-19T13:53:07;3.30;;;1.00;;
76023;SDS011;64719;52.124;6.226;2023-09-19T13:55:34;4.22;;;1.00;;
76023;SDS011;64719;52.124;6.226;2023-09-19T13:58:00;3.78;;;0.90;;
76023;SDS011;64719;52.124;6.226;2023-09-19T14:00:27;1.40;;;0.70;;
76023;SDS011;64719;52.124;6.226;2023-09-19T14:02:54;5.70;;;1.30;;
76023;SDS011;64719;52.124;6.226;2023-09-19T14:05:21;3.17;;;1.00;;
76023;SDS011;64719;52.124;6.226;2023-09-19T14:07:49;4.90;;;0.98;;
76023;SDS011;64719;52.124;6.226;2023-09-19T14:10:15;6.10;;;1.20;;
76023;SDS011;64719;52.124;6.226;2023-09-19T14:12:44;4.35;;;1.00;;
76023;SDS011;64719;52.124;6.226;2023-09-19T14:15:11;5.07;;;1.05;;
76023;SDS011;64719;52.124;6.226;2023-09-19T14:17:38;4.28;;;0.90;;
76023;SDS011;64719;52.124;6.226;2023-09-19T14:20:04;2.65;;;0.82;;
76023;SDS011;64719;52.124;6.226;2023-09-19T14:22:32;5.05;;;1.00;;
76023;SDS011;64719;52.124;6.226;2023-09-19T14:25:01;5.18;;;1.25;;
76023;SDS011;64719;52.124;6.226;2023-09-19T14:27:29;3.47;;;0.82;;
76023;SDS011;64719;52.124;6.226;2023-09-19T14:29:55;3.30;;;0.80;;
76023;SDS011;64719;52.124;6.226;2023-09-19T14:32:22;2.70;;;1.17;;
76023;SDS011;64719;52.124;6.226;2023-09-19T14:34:49;3.63;;;0.95;;
76023;SDS011;64719;52.124;6.226;2023-09-19T14:37:16;3.42;;;1.15;;
76023;SDS011;64719;52.124;6.226;2023-09-19T14:39:43;3.90;;;0.90;;
76023;SDS011;64719;52.124;6.226;2023-09-19T14:42:11;6.57;;;1.23;;
76023;SDS011;64719;52.124;6.226;2023-09-19T14:44:39;4.10;;;0.85;;
76023;SDS011;64719;52.124;6.226;2023-09-19T14:47:06;5.32;;;1.08;;
76023;SDS011;64719;52.124;6.226;2023-09-19T14:49:34;3.75;;;0.93;;
76023;SDS011;64719;52.124;6.226;2023-09-19T14:52:03;4.88;;;1.00;;
76023;SDS011;64719;52.124;6.226;2023-09-19T14:54:30;4.18;;;1.40;;
76023;SDS011;64719;52.124;6.226;2023-09-19T14:56:57;2.40;;;0.90;;
76023;SDS011;64719;52.124;6.226;2023-09-19T14:59:31;3.25;;;1.15;;
76023;SDS011;64719;52.124;6.226;2023-09-19T15:01:57;2.85;;;0.98;;
76023;SDS011;64719;52.124;6.226;2023-09-19T15:04:24;3.90;;;0.80;;
76023;SDS011;64719;52.124;6.226;2023-09-19T15:06:50;4.20;;;1.38;;
76023;SDS011;64719;52.124;6.226;2023-09-19T15:09:19;4.40;;;1.10;;
76023;SDS011;64719;52.124;6.226;2023-09-19T15:11:49;2.65;;;0.80;;
76023;SDS011;64719;52.124;6.226;2023-09-19T15:14:16;3.70;;;0.93;;
76023;SDS011;64719;52.124;6.226;2023-09-19T15:16:44;3.72;;;1.00;;
76023;SDS011;64719;52.124;6.226;2023-09-19T15:19:11;5.43;;;1.10;;
76023;SDS011;64719;52.124;6.226;2023-09-19T15:21:37;2.95;;;0.88;;
76023;SDS011;64719;52.124;6.226;2023-09-19T15:24:05;3.67;;;0.95;;
76023;SDS011;64719;52.124;6.226;2023-09-19T15:26:34;3.80;;;1.10;;
76023;SDS011;64719;52.124;6.226;2023-09-19T15:29:04;4.70;;;1.20;;
76023;SDS011;64719;52.124;6.226;2023-09-19T15:31:31;3.50;;;1.00;;
76023;SDS011;64719;52.124;6.226;2023-09-19T15:33:59;5.45;;;0.90;;
76023;SDS011;64719;52.124;6.226;2023-09-19T15:36:25;3.35;;;1.00;;
76023;SDS011;64719;52.124;6.226;2023-09-19T15:38:56;5.65;;;1.10;;
76023;SDS011;64719;52.124;6.226;2023-09-19T15:41:24;3.97;;;1.10;;
76023;SDS011;64719;52.124;6.226;2023-09-19T15:43:51;5.97;;;1.20;;
76023;SDS011;64719;52.124;6.226;2023-09-19T15:46:18;5.38;;;1.27;;
76023;SDS011;64719;52.124;6.226;2023-09-19T15:48:45;3.97;;;1.42;;
76023;SDS011;64719;52.124;6.226;2023-09-19T15:51:14;2.75;;;1.05;;
76023;SDS011;64719;52.124;6.226;2023-09-19T15:56:08;3.72;;;1.20;;
76023;SDS011;64719;52.124;6.226;2023-09-19T15:58:36;3.95;;;1.13;;
76023;SDS011;64719;52.124;6.226;2023-09-19T16:01:04;5.20;;;1.20;;
76023;SDS011;64719;52.124;6.226;2023-09-19T16:03:33;4.90;;;1.17;;